Time;durP1;ratioP1;P1;durP2;ratioP2;P2;SDS_P1;SDS_P2;PMS_P1;PMS_P2;Temp;Humidity;BMP_temperature;BMP_pressure;BME280_temperature;BME280_humidity;BME280_pressure;Samples;Min_cycle;Max_cycle;Signal;HPM_P1;HPM_P2
2023/02/21 07:39:15;;;;;;;9.88;5.70;;;;;;;-0.62;100.00;99462.66;5026071;28;20356;-79
2023/02/21 07:41:42;;;;;;;12.25;6.78;;;;;;;-0.34;100.00;99476.75;5025270;28;20042;-80
2023/02/21 07:44:09;;;;;;;13.50;5.82;;;;;;;-0.29;100.00;99475.47;5021686;28;20041;-80
2023/02/21 07:46:35;;;;;;;14.35;6.72;;;;;;;-0.09;100.00;99474.06;5024804;28;20054;-80
2023/02/21 07:49:02;;;;;;;15.02;5.80;;;;;;;0.09;100.00;99489.72;5019920;28;20046;-80
2023/02/21 07:51:29;;;;;;;9.05;5.80;;;;;;;0.20;100.00;99489.81;5024389;28;20050;-80
2023/02/21 07:53:56;;;;;;;12.35;5.90;;;;;;;0.12;100.00;99476.13;5023778;27;20054;-80
2023/02/21 07:56:24;;;;;;;11.45;5.50;;;;;;;0.23;100.00;99486.09;5020017;28;20053;-80
2023/02/21 07:58:50;;;;;;;13.25;5.93;;;;;;;0.33;100.00;99463.03;5024384;28;20401;-80
2023/02/21 08:01:17;;;;;;;11.20;6.35;;;;;;;0.60;100.00;99488.72;5023611;28;20046;-80
2023/02/21 08:03:44;;;;;;;13.68;7.22;;;;;;;0.73;100.00;99486.00;5053828;27;20476;-80
2023/02/21 08:06:11;;;;;;;12.50;7.45;;;;;;;0.62;100.00;99460.91;5020591;28;20053;-80
2023/02/21 08:08:37;;;;;;;11.57;6.93;;;;;;;0.70;100.00;99450.47;5024459;28;20046;-80
2023/02/21 08:11:04;;;;;;;11.85;7.35;;;;;;;0.95;100.00;99479.88;5024115;28;20522;-80
2023/02/21 08:13:32;;;;;;;16.40;6.82;;;;;;;0.94;100.00;99459.44;5023785;28;20421;-80
2023/02/21 08:15:58;;;;;;;12.52;6.28;;;;;;;1.18;100.00;99494.22;5017670;28;20054;-80
2023/02/21 08:18:25;;;;;;;13.63;6.15;;;;;;;1.28;100.00;99494.34;5021253;28;20723;-80
2023/02/21 08:20:52;;;;;;;11.45;5.93;;;;;;;1.40;100.00;99485.38;5020828;28;20056;-80
2023/02/21 08:23:19;;;;;;;9.70;5.63;;;;;;;1.50;100.00;99485.53;5021532;28;20056;-80
2023/02/21 08:25:46;;;;;;;19.48;6.53;;;;;;;1.37;100.00;99454.34;5024106;28;20061;-80
2023/02/21 08:28:13;;;;;;;12.10;6.65;;;;;;;1.62;100.00;99473.00;5023792;28;20057;-80
2023/02/21 08:30:41;;;;;;;13.02;6.88;;;;;;;1.89;100.00;99483.38;5024045;28;20053;-80
2023/02/21 08:33:08;;;;;;;16.80;6.03;;;;;;;2.18;100.00;99483.72;5009991;28;20054;-80
2023/02/21 08:35:35;;;;;;;9.70;6.25;;;;;;;2.29;100.00;99491.75;5018290;28;20071;-80
2023/02/21 08:38:02;;;;;;;13.63;6.15;;;;;;;2.37;100.00;99476.88;5011055;28;20402;-80
2023/02/21 08:40:30;;;;;;;9.93;5.40;;;;;;;2.47;100.00;99480.53;5004136;28;20062;-81
2023/02/21 08:42:58;;;;;;;7.88;4.93;;;;;;;2.63;100.00;99488.16;5003646;27;20103;-81
2023/02/21 08:45:26;;;;;;;14.52;5.50;;;;;;;2.65;100.00;99486.22;5004184;28;20054;-80
2023/02/21 08:47:54;;;;;;;9.20;5.20;;;;;;;2.78;100.00;99488.72;5009480;28;20144;-81
2023/02/21 08:50:23;;;;;;;7.07;4.93;;;;;;;2.87;100.00;99485.25;5012279;28;20183;-80
2023/02/21 08:52:51;;;;;;;17.70;7.68;;;;;;;2.90;100.00;99466.19;4992201;28;20052;-81
2023/02/21 08:55:18;;;;;;;20.90;7.22;;;;;;;2.96;100.00;99449.56;5001823;28;20046;-81
2023/02/21 08:57:45;;;;;;;17.80;6.43;;;;;;;3.27;100.00;99483.75;5010336;28;20405;-81
2023/02/21 09:00:14;;;;;;;14.32;6.55;;;;;;;3.33;100.00;99473.34;5010232;28;20050;-80
2023/02/21 09:02:41;;;;;;;15.83;6.27;;;;;;;3.47;100.00;99466.75;5009981;28;20057;-80
2023/02/21 09:05:11;;;;;;;23.65;6.22;;;;;;;3.59;100.00;99472.91;5015741;28;20311;-80
2023/02/21 09:07:38;;;;;;;19.25;6.68;;;;;;;3.78;100.00;99464.13;5004731;28;20049;-80
2023/02/21 09:10:06;;;;;;;13.18;6.13;;;;;;;4.17;100.00;99477.72;5001145;28;20050;-80
2023/02/21 09:12:32;;;;;;;19.55;8.05;;;;;;;4.12;100.00;99455.75;5009743;28;20094;-81
2023/02/21 09:14:59;;;;;;;15.90;6.78;;;;;;;4.37;100.00;99475.94;5010165;28;20370;-80
2023/02/21 09:17:25;;;;;;;14.73;4.22;;;;;;;4.55;100.00;99465.38;5010170;28;20050;-81
2023/02/21 09:19:52;;;;;;;17.50;4.97;;;;;;;4.61;100.00;99447.81;5008338;28;20050;-81
2023/02/21 09:22:19;;;;;;;36.20;5.45;;;;;;;4.79;100.00;99450.66;5009313;28;20056;-81
2023/02/21 09:24:46;;;;;;;23.77;3.75;;;;;;;4.99;100.00;99462.28;5006310;28;20042;-81
2023/02/21 09:27:16;;;;;;;16.40;3.88;;;;;;;5.03;100.00;99433.19;5055949;28;20050;-81
2023/02/21 09:29:43;;;;;;;;;;;;;;;5.40;100.00;99459.41;5114125;28;20139;-81
2023/02/21 09:32:10;;;;;;;9.27;3.30;;;;;;;5.44;100.00;99467.06;5112517;28;20381;-81
2023/02/21 09:34:37;;;;;;;8.70;3.17;;;;;;;5.66;100.00;99457.81;5042903;28;20061;-81
2023/02/21 09:37:05;;;;;;;7.25;3.15;;;;;;;5.76;100.00;99440.72;5009342;28;20053;-80
2023/02/21 09:39:33;;;;;;;9.20;3.20;;;;;;;5.93;100.00;99450.75;5009686;28;20050;-81
2023/02/21 09:42:00;;;;;;;5.90;3.03;;;;;;;5.91;100.00;99438.41;5007042;28;20057;-80
2023/02/21 09:44:28;;;;;;;7.03;2.95;;;;;;;6.09;100.00;99444.75;5008807;28;20396;-80
2023/02/21 09:46:57;;;;;;;7.28;3.60;;;;;;;6.23;100.00;99439.84;5009361;28;20046;-81
2023/02/21 09:49:26;;;;;;;12.38;4.22;;;;;;;6.35;100.00;99449.44;5007936;28;20046;-80
2023/02/21 09:51:54;;;;;;;9.38;4.25;;;;;;;6.44;100.00;99453.09;5009621;28;20053;-81
2023/02/21 09:54:25;;;;;;;5.20;3.17;;;;;;;6.49;100.00;99456.19;5009216;28;20132;-81
2023/02/21 09:56:54;;;;;;;4.63;2.70;;;;;;;6.49;100.00;99448.94;4997462;28;20057;-81
2023/02/21 09:59:20;;;;;;;7.22;3.35;;;;;;;6.69;100.00;99446.09;5005231;28;20412;-81
2023/02/21 10:01:58;;;;;;;11.75;3.95;;;;;;;6.62;98.65;99429.66;5044961;28;20046;-80
2023/02/21 10:04:38;;;;;;;8.02;3.25;;;;;;;6.90;98.70;99453.91;5000689;28;20614;-81
2023/02/21 10:07:11;;;;;;;8.80;3.30;;;;;;;7.09;95.42;99455.59;5009177;28;20072;-81
2023/02/21 10:09:43;;;;;;;8.70;3.65;;;;;;;7.12;95.85;99438.22;5009677;28;20409;-81
2023/02/21 10:12:20;;;;;;;8.75;3.80;;;;;;;7.28;93.62;99440.22;5008584;28;20060;-81
2023/02/21 10:15:14;;;;;;;10.68;4.35;;;;;;;7.35;92.52;99461.06;4991542;28;20061;-81
2023/02/21 10:17:47;;;;;;;10.45;4.32;;;;;;;7.44;91.75;99445.75;4993391;28;20050;-81
2023/02/21 10:20:21;;;;;;;10.15;4.22;;;;;;;7.59;90.32;99448.75;5005131;28;20132;-81
2023/02/21 10:22:49;;;;;;;12.43;3.92;;;;;;;7.57;90.11;99439.91;5008316;28;20042;-81
2023/02/21 10:25:23;;;;;;;9.23;4.95;;;;;;;7.71;90.08;99458.28;5007633;28;20052;-81
2023/02/21 10:27:53;;;;;;;7.70;4.03;;;;;;;7.77;89.76;99432.44;5005085;28;20053;-81
2023/02/21 10:30:27;;;;;;;10.90;4.07;;;;;;;7.92;88.00;99451.66;4989282;28;20058;-81
2023/02/21 10:32:54;;;;;;;12.50;4.78;;;;;;;7.97;87.95;99457.41;4988361;28;20081;-81
2023/02/21 10:35:21;;;;;;;14.30;5.72;;;;;;;7.94;88.09;99450.47;5006360;28;20405;-80
2023/02/21 10:37:50;;;;;;;13.55;5.00;;;;;;;8.09;84.85;99442.59;5038143;28;20036;-80
2023/02/21 10:40:28;;;;;;;9.50;5.03;;;;;;;8.24;83.97;99450.09;5111986;28;20410;-81
2023/02/21 10:43:01;;;;;;;11.75;5.10;;;;;;;8.22;83.46;99438.56;5072251;27;20046;-81
2023/02/21 10:45:34;;;;;;;10.35;4.20;;;;;;;8.36;83.02;99429.84;5009024;28;20045;-81
2023/02/21 10:48:04;;;;;;;12.30;4.70;;;;;;;8.45;81.76;99418.03;5006862;28;20058;-81
2023/02/21 10:50:43;;;;;;;10.25;4.32;;;;;;;8.61;84.32;99419.94;5000580;28;20046;-81
2023/02/21 10:53:27;;;;;;;8.40;4.37;;;;;;;8.62;81.82;99421.63;5005316;28;20058;-81
2023/02/21 10:56:08;;;;;;;9.52;4.00;;;;;;;8.64;81.61;99413.31;5008367;28;20297;-81
2023/02/21 10:58:37;;;;;;;12.52;4.35;;;;;;;8.74;81.42;99405.91;5007592;28;20400;-81
2023/02/21 11:01:12;;;;;;;9.80;4.10;;;;;;;8.93;80.40;99428.31;4990498;28;20058;-80
2023/02/21 11:03:44;;;;;;;13.00;4.22;;;;;;;8.81;78.67;99409.63;5003350;28;20053;-81
2023/02/21 11:06:21;;;;;;;12.65;4.85;;;;;;;8.86;74.36;99392.88;5008411;28;20053;-81
2023/02/21 11:08:47;;;;;;;11.70;4.22;;;;;;;9.12;75.05;99419.84;5005794;28;20046;-81
2023/02/21 11:11:14;;;;;;;8.80;4.15;;;;;;;8.99;75.26;99395.09;5090900;28;20514;-81
2023/02/21 11:13:43;;;;;;;11.32;4.70;;;;;;;9.33;71.63;99413.91;4990834;28;20054;-81
2023/02/21 11:16:12;;;;;;;15.68;4.93;;;;;;;9.24;71.30;99414.06;4988773;28;20572;-81
2023/02/21 11:18:38;;;;;;;7.57;4.25;;;;;;;9.24;71.84;99387.78;5005097;28;20443;-81
2023/02/21 11:21:12;;;;;;;7.43;3.72;;;;;;;9.20;73.06;99379.16;5008302;28;20046;-81
2023/02/21 11:23:46;;;;;;;9.98;3.67;;;;;;;9.39;70.96;99394.22;5006021;28;20099;-81
2023/02/21 11:26:13;;;;;;;12.00;4.63;;;;;;;9.35;71.05;99370.31;5006783;28;20054;-81
2023/02/21 11:28:43;;;;;;;17.10;4.35;;;;;;;9.45;71.66;99383.69;4989092;28;20047;-81
2023/02/21 11:31:17;;;;;;;8.95;3.65;;;;;;;9.52;71.74;99363.81;4992436;28;20050;-81
2023/02/21 11:33:51;;;;;;;9.75;3.90;;;;;;;9.58;72.89;99359.56;5004871;28;20050;-81
2023/02/21 11:36:20;;;;;;;9.70;4.25;;;;;;;9.87;70.50;99360.84;5008205;28;20042;-81
2023/02/21 11:39:00;;;;;;;8.80;3.67;;;;;;;9.99;71.62;99373.00;5007802;28;20058;-81
2023/02/21 11:41:30;;;;;;;9.73;4.30;;;;;;;10.04;70.75;99372.47;5005020;28;20046;-81
2023/02/21 11:43:58;;;;;;;17.25;4.18;;;;;;;9.89;71.27;99334.34;5044406;28;20049;-81
2023/02/21 11:46:37;;;;;;;8.52;4.13;;;;;;;9.99;71.78;99342.28;5105630;28;20055;-81
2023/02/21 11:49:11;;;;;;;8.73;4.28;;;;;;;10.02;72.32;99334.63;5004802;28;20068;-81
2023/02/21 11:51:43;;;;;;;11.18;4.10;;;;;;;10.19;69.98;99343.56;4988338;28;20050;-81
2023/02/21 11:54:11;;;;;;;8.43;3.63;;;;;;;10.20;68.90;99317.22;4987559;28;20494;-83
2023/02/21 11:57:02;;;;;;;6.60;3.75;;;;;;;10.47;69.90;99340.34;4988557;28;20053;-81
2023/02/21 11:59:42;;;;;;;9.10;3.88;;;;;;;10.43;70.13;99304.53;4988484;28;20062;-81
2023/02/21 12:02:38;;;;;;;13.43;4.07;;;;;;;10.61;69.84;99336.00;5002027;28;20436;-81
2023/02/21 12:05:22;;;;;;;8.85;3.67;;;;;;;10.51;68.56;99313.66;5006329;28;20410;-81
2023/02/21 12:07:58;;;;;;;13.63;3.63;;;;;;;10.67;68.41;99301.81;4988382;28;20046;-81
2023/02/21 12:10:44;;;;;;;7.45;3.42;;;;;;;10.90;67.93;99318.97;4988362;28;20053;-81
2023/02/21 12:13:21;;;;;;;8.27;4.57;;;;;;;11.02;68.80;99310.34;4987299;28;20057;-81
2023/02/21 12:15:56;;;;;;;8.75;3.50;;;;;;;10.96;66.41;99301.91;4987707;28;20055;-81
2023/02/21 12:18:39;;;;;;;6.63;3.08;;;;;;;10.97;67.24;99276.41;5002560;28;20505;-81
2023/02/21 12:21:26;;;;;;;7.07;2.88;;;;;;;11.01;63.86;99274.16;5092868;28;20055;-81
2023/02/21 12:24:03;;;;;;;10.75;2.60;;;;;;;11.11;64.34;99269.28;5108705;28;20055;-81
2023/02/21 12:26:49;;;;;;;7.70;3.47;;;;;;;11.27;63.79;99267.41;5047849;28;20061;-81
2023/02/21 12:29:28;;;;;;;7.68;3.15;;;;;;;11.11;64.62;99254.81;4991153;28;20058;-81
2023/02/21 12:32:11;;;;;;;9.47;2.83;;;;;;;11.24;62.50;99252.28;4999872;28;20043;-81
2023/02/21 12:34:50;;;;;;;6.65;2.83;;;;;;;11.55;63.80;99267.59;5004927;28;20694;-81
2023/02/21 12:37:29;;;;;;;7.07;2.97;;;;;;;11.59;61.55;99230.81;5010470;28;20046;-81
2023/02/21 12:40:11;;;;;;;6.30;2.58;;;;;;;11.79;62.05;99230.22;5010580;28;20057;-81
2023/02/21 12:42:49;;;;;;;6.72;2.75;;;;;;;11.89;61.39;99241.63;4990470;28;20123;-81
2023/02/21 12:45:33;;;;;;;6.43;2.40;;;;;;;11.92;61.83;99219.44;4992045;28;20046;-82
2023/02/21 12:48:07;;;;;;;6.70;2.70;;;;;;;11.99;60.48;99231.31;5010441;28;20057;-81
2023/02/21 12:50:39;;;;;;;5.85;2.65;;;;;;;12.13;60.19;99231.44;5028829;28;20047;-81
2023/02/21 12:53:11;;;;;;;4.20;2.55;;;;;;;12.07;60.48;99219.44;5022206;28;20470;-82
2023/02/21 12:55:41;;;;;;;5.47;2.58;;;;;;;12.02;60.05;99206.38;5010358;28;20420;-82
2023/02/21 12:58:15;;;;;;;5.82;2.22;;;;;;;12.21;61.45;99225.88;5010441;28;20054;-81
2023/02/21 13:00:46;;;;;;;9.23;2.88;;;;;;;12.22;61.22;99208.47;5004266;28;20050;-81
2023/02/21 13:03:26;;;;;;;6.50;2.17;;;;;;;12.44;60.34;99212.06;5009454;28;20447;-82
2023/02/21 13:05:54;;;;;;;;;;;;;;;12.51;61.68;99217.53;5009745;28;20089;-82
2023/02/21 13:08:24;;;;;;;3.58;2.13;;;;;;;12.53;61.53;99210.03;5009956;28;19925;-82
2023/02/21 13:10:52;;;;;;;;;;;;;;;12.65;60.99;99205.72;4998657;28;20058;-82
2023/02/21 13:13:23;;;;;;;5.03;2.10;;;;;;;12.68;60.33;99193.59;4993512;28;19974;-82
2023/02/21 13:15:52;;;;;;;6.85;2.95;;;;;;;12.53;60.59;99167.25;5010206;28;20050;-82
2023/02/21 13:18:25;;;;;;;4.70;2.37;;;;;;;12.56;59.57;99149.66;5010789;28;20417;-82
2023/02/21 13:20:55;;;;;;;7.63;2.28;;;;;;;12.68;59.11;99161.69;5010153;28;20056;-82
2023/02/21 13:27:12;;;;;;;3.88;2.20;;;;;;;12.63;58.83;99161.44;5050264;28;20084;-82
2023/02/21 13:29:42;;;;;;;7.80;2.47;;;;;;;12.79;59.32;99179.38;4985835;28;20479;-81
2023/02/21 13:32:12;;;;;;;10.07;2.20;;;;;;;12.74;59.10;99154.59;5009347;28;20050;-82
2023/02/21 13:34:42;;;;;;;;;;;;;;;12.94;59.85;99160.19;5010172;28;20046;-82
2023/02/21 13:37:15;;;;;;;4.43;2.20;;;;;;;12.92;58.79;99124.91;5009696;28;19925;-82
2023/02/21 13:39:46;;;;;;;4.47;2.08;;;;;;;13.05;58.63;99132.34;5004539;28;20043;-82
2023/02/21 13:42:18;;;;;;;5.68;2.08;;;;;;;13.04;58.28;99135.28;5004537;28;20046;-82
2023/02/21 13:44:47;;;;;;;6.70;2.00;;;;;;;13.10;58.99;99127.09;5009630;28;20508;-82
2023/02/21 13:47:16;;;;;;;5.43;1.70;;;;;;;13.24;57.87;99127.16;5009700;28;20416;-82
2023/02/21 13:49:52;;;;;;;4.28;1.85;;;;;;;13.30;56.97;99130.97;5009591;28;20481;-82
2023/02/21 13:52:35;;;;;;;9.73;2.28;;;;;;;13.27;57.27;99118.56;5009148;28;20507;-82
2023/02/21 13:55:28;;;;;;;4.70;1.88;;;;;;;13.43;56.97;99104.59;5001199;28;20052;-82
2023/02/21 13:58:33;;;;;;;3.05;1.80;;;;;;;13.66;56.60;99125.25;4999703;28;20179;-82
2023/02/21 14:01:40;;;;;;;4.22;1.60;;;;;;;13.58;56.36;99095.41;4993030;28;20051;-82
2023/02/21 14:04:44;;;;;;;3.63;1.50;;;;;;;13.78;56.68;99111.84;4988982;28;20056;-82
2023/02/21 14:07:12;;;;;;;2.53;1.77;;;;;;;13.59;56.33;99083.41;4989764;28;20054;-82
2023/02/21 14:09:41;;;;;;;7.47;1.90;;;;;;;13.56;56.92;99072.91;4993515;28;20052;-82
2023/02/21 14:12:11;;;;;;;10.75;1.80;;;;;;;13.52;56.57;99069.75;5005195;28;20055;-82
2023/02/21 14:14:41;;;;;;;3.25;1.50;;;;;;;13.73;56.54;99076.94;5075013;28;20044;-82
2023/02/21 14:17:10;;;;;;;5.63;1.80;;;;;;;13.68;57.20;99076.72;5113261;28;20516;-82
2023/02/21 14:19:42;;;;;;;8.80;1.73;;;;;;;13.81;56.67;99092.28;5112348;28;20044;-82
2023/02/21 14:22:14;;;;;;;5.38;1.73;;;;;;;13.73;55.64;99063.28;5111684;28;20059;-82
2023/02/21 14:24:44;;;;;;;4.40;2.17;;;;;;;14.00;55.79;99096.13;5070950;27;20405;-82
2023/02/21 14:27:35;;;;;;;3.13;1.50;;;;;;;14.07;56.26;99083.28;5008942;28;20064;-82
2023/02/21 14:30:30;;;;;;;4.93;1.98;;;;;;;13.95;55.69;99074.84;5044099;28;20051;-82
2023/02/21 14:33:24;;;;;;;4.35;1.73;;;;;;;14.19;55.56;99079.91;5083082;28;20048;-82
2023/02/21 14:35:59;;;;;;;8.13;1.40;;;;;;;14.25;54.44;99081.81;5112093;28;20052;-82
2023/02/21 14:38:29;;;;;;;3.97;1.55;;;;;;;14.22;54.88;99049.44;5089333;28;20064;-82
2023/02/21 14:41:16;;;;;;;6.47;1.73;;;;;;;14.33;54.87;99070.63;5002369;28;20053;-82
2023/02/21 14:43:56;;;;;;;3.65;1.50;;;;;;;14.32;54.94;99068.97;5008566;28;20058;-82
2023/02/21 14:46:44;;;;;;;8.30;1.60;;;;;;;14.30;54.58;99066.47;5004758;28;20046;-82
2023/02/21 14:49:38;;;;;;;8.38;1.55;;;;;;;14.30;54.52;99063.72;5008395;28;20053;-82
2023/02/21 14:52:42;;;;;;;12.52;1.80;;;;;;;14.49;54.04;99059.25;5006503;28;20042;-82
2023/02/21 14:55:29;;;;;;;5.85;1.75;;;;;;;14.36;53.80;99040.13;4955413;28;20054;-82
2023/02/21 14:58:43;;;;;;;6.45;1.30;;;;;;;14.40;54.22;99055.06;4994045;28;20051;-82
2023/02/21 15:01:24;;;;;;;3.47;1.10;;;;;;;14.38;53.40;99050.84;4988878;28;20057;-82
2023/02/21 15:04:00;;;;;;;2.67;1.52;;;;;;;14.36;54.14;99029.19;4987802;28;20611;-82
2023/02/21 15:06:29;;;;;;;3.25;1.13;;;;;;;14.41;54.11;99023.94;5046968;28;20397;-82
2023/02/21 15:08:55;;;;;;;2.90;1.30;;;;;;;14.42;53.65;99024.78;5002810;28;20396;-82
2023/02/21 15:11:27;;;;;;;4.68;1.27;;;;;;;14.46;54.63;99037.81;5007174;28;20046;-83
2023/02/21 15:14:21;;;;;;;4.95;1.40;;;;;;;14.33;55.13;99029.63;5007945;28;20489;-82
2023/02/21 15:16:50;;;;;;;4.32;1.95;;;;;;;14.16;55.06;99021.03;5002367;28;20499;-83
2023/02/21 15:19:24;;;;;;;4.63;1.50;;;;;;;14.22;55.50;99033.84;5008245;28;20054;-82
2023/02/21 15:22:07;;;;;;;3.90;1.60;;;;;;;14.29;56.19;99028.38;5005577;28;20099;-82
2023/02/21 15:24:33;;;;;;;8.30;1.70;;;;;;;14.36;56.19;99031.94;4991045;28;20478;-83
2023/02/21 15:27:10;;;;;;;4.97;1.75;;;;;;;14.14;56.18;99004.00;4987580;28;20051;-83
2023/02/21 15:29:37;;;;;;;6.30;1.55;;;;;;;14.10;57.19;99010.94;4988635;28;20493;-83
2023/02/21 15:32:04;;;;;;;2.33;1.42;;;;;;;14.15;56.76;99013.88;4988113;28;20050;-82
2023/02/21 15:34:37;;;;;;;6.72;1.70;;;;;;;14.02;56.88;99001.06;4988757;28;20056;-82
2023/02/21 15:37:13;;;;;;;6.03;1.50;;;;;;;14.08;57.57;99019.34;5004227;28;20397;-83
2023/02/21 15:39:42;;;;;;;7.18;1.80;;;;;;;14.13;56.79;99029.66;5031565;28;20544;-82
2023/02/21 15:42:10;;;;;;;5.03;1.63;;;;;;;14.11;56.75;99010.72;5022754;28;20060;-83
2023/02/21 15:44:41;;;;;;;4.70;1.40;;;;;;;14.02;56.87;98990.13;5008131;28;20499;-83
2023/02/21 15:47:11;;;;;;;3.70;1.50;;;;;;;13.97;57.04;98987.19;5007981;28;20049;-82
2023/02/21 15:49:41;;;;;;;7.25;1.67;;;;;;;14.04;56.88;99003.59;4999018;28;20046;-82
2023/02/21 15:52:25;;;;;;;6.25;1.40;;;;;;;14.10;56.96;99014.50;5006906;28;20050;-82
2023/02/21 15:55:25;;;;;;;13.20;1.85;;;;;;;13.84;57.74;98998.16;4994392;28;20119;-82
2023/02/21 15:58:00;;;;;;;8.88;2.00;;;;;;;13.73;58.65;98999.59;5007719;28;20350;-83
2023/02/21 16:00:29;;;;;;;4.60;1.67;;;;;;;13.63;58.39;98994.56;5009927;28;20057;-82
2023/02/21 16:03:32;;;;;;;2.08;1.40;;;;;;;13.63;58.70;99002.75;5008582;28;20455;-82
2023/02/21 16:06:26;;;;;;;3.75;1.52;;;;;;;13.33;59.19;98970.31;5007078;28;20078;-82
2023/02/21 16:08:58;;;;;;;5.55;1.70;;;;;;;13.34;60.18;98999.34;4995515;28;20054;-82
2023/02/21 16:11:27;;;;;;;5.00;2.25;;;;;;;13.04;60.52;98960.63;4997557;28;20505;-83
2023/02/21 16:13:55;;;;;;;7.82;1.90;;;;;;;13.08;60.81;98995.47;4996480;28;20042;-82
2023/02/21 16:16:22;;;;;;;6.32;1.75;;;;;;;12.98;60.92;98983.28;5051593;28;20325;-83
2023/02/21 16:18:55;;;;;;;6.70;2.00;;;;;;;12.95;61.05;98997.28;5005390;28;20052;-82
2023/02/21 16:21:26;;;;;;;5.15;1.70;;;;;;;12.67;61.44;98962.78;5011179;28;20092;-82
2023/02/21 16:23:53;;;;;;;8.70;1.98;;;;;;;12.69;61.79;98991.56;5008687;28;20050;-83
2023/02/21 16:26:25;;;;;;;4.90;1.83;;;;;;;12.54;62.30;98983.50;5010081;28;20045;-84
2023/02/21 16:28:53;;;;;;;4.13;1.88;;;;;;;12.39;62.77;98975.47;5010988;28;20540;-84
2023/02/21 16:31:27;;;;;;;10.93;2.53;;;;;;;12.26;63.41;98980.00;5007907;28;20054;-83
2023/02/21 16:33:54;;;;;;;8.50;1.60;;;;;;;11.88;65.30;98975.72;5009858;28;20046;-83
2023/02/21 16:36:24;;;;;;;11.77;1.70;;;;;;;11.65;66.78;98960.47;5010939;28;20054;-83
2023/02/21 16:38:51;;;;;;;5.45;1.90;;;;;;;11.38;67.93;98951.22;5008829;28;20045;-84
2023/02/21 16:41:17;;;;;;;3.45;1.40;;;;;;;11.32;69.44;98979.19;4994894;28;20057;-84
2023/02/21 16:43:45;;;;;;;5.45;2.00;;;;;;;11.26;69.51;98972.69;4990713;28;20058;-84
2023/02/21 16:46:12;;;;;;;4.03;1.77;;;;;;;11.20;70.26;98978.91;4983110;28;20050;-83
2023/02/21 16:48:41;;;;;;;2.70;1.50;;;;;;;10.94;71.38;98983.03;5005846;28;20042;-83
2023/02/21 16:51:13;;;;;;;5.57;1.77;;;;;;;10.70;72.24;98967.03;5074290;28;20119;-83
2023/02/21 16:53:40;;;;;;;4.75;1.40;;;;;;;10.56;74.36;98980.44;5006831;28;20050;-84
2023/02/21 16:56:07;;;;;;;5.20;1.52;;;;;;;10.42;74.79;98976.72;5008547;28;20054;-83
2023/02/21 16:58:36;;;;;;;4.22;1.58;;;;;;;10.36;75.98;98979.34;5008414;28;20057;-83
2023/02/21 17:01:06;;;;;;;5.60;1.73;;;;;;;10.19;75.43;98971.38;4998123;28;20413;-83
2023/02/21 17:03:32;;;;;;;6.68;2.00;;;;;;;10.17;76.67;98991.59;4994316;28;20058;-84
2023/02/21 17:06:01;;;;;;;4.88;1.67;;;;;;;9.98;77.83;98995.69;4995661;28;20137;-84
2023/02/21 17:08:27;;;;;;;7.05;1.98;;;;;;;9.99;77.14;98989.22;5007424;28;20061;-83
2023/02/21 17:10:54;;;;;;;5.07;1.60;;;;;;;9.69;77.96;98962.03;5007837;28;20060;-83
2023/02/21 17:13:24;;;;;;;4.40;1.98;;;;;;;9.66;77.94;98971.38;4987607;28;20053;-83
2023/02/21 17:15:51;;;;;;;6.25;1.55;;;;;;;9.80;79.46;98999.59;4991477;28;20055;-83
2023/02/21 17:18:17;;;;;;;6.18;2.70;;;;;;;9.49;79.75;98980.69;4999943;28;20401;-83
2023/02/21 17:20:44;;;;;;;6.10;2.70;;;;;;;9.54;80.15;99000.84;5026019;28;20498;-83
2023/02/21 17:23:12;;;;;;;8.48;2.45;;;;;;;9.62;81.00;99009.91;5010567;28;20425;-83
2023/02/21 17:25:38;;;;;;;4.80;1.98;;;;;;;9.37;82.77;98991.97;5002678;28;20039;-83
2023/02/21 17:28:05;;;;;;;5.38;3.25;;;;;;;9.26;82.60;98973.41;5004234;28;20054;-83
2023/02/21 17:30:31;;;;;;;5.78;2.30;;;;;;;9.38;81.86;99011.81;4991455;28;20081;-84
2023/02/21 17:32:58;;;;;;;8.98;2.53;;;;;;;9.03;84.82;98993.25;5000730;28;20444;-83
2023/02/21 17:35:24;;;;;;;7.22;2.03;;;;;;;8.94;83.17;98983.47;5005359;28;20050;-83
2023/02/21 17:37:51;;;;;;;4.28;2.17;;;;;;;8.94;83.74;99015.16;5013961;28;20065;-83
2023/02/21 17:40:21;;;;;;;3.58;2.28;;;;;;;8.71;85.14;99004.25;5007233;28;20130;-83
2023/02/21 17:42:48;;;;;;;4.85;2.40;;;;;;;8.50;86.42;98995.69;5002865;28;20050;-83
2023/02/21 17:45:17;;;;;;;5.00;2.17;;;;;;;8.40;87.38;98994.19;5012903;28;20085;-83
2023/02/21 17:47:44;;;;;;;3.60;2.17;;;;;;;8.26;88.78;99003.88;5007468;28;20042;-83
2023/02/21 17:50:12;;;;;;;5.95;2.88;;;;;;;8.11;89.87;98984.81;4995847;28;20512;-83
2023/02/21 17:52:39;;;;;;;4.78;2.35;;;;;;;8.01;90.93;98994.97;5020945;28;20048;-83
2023/02/21 17:55:07;;;;;;;4.50;2.33;;;;;;;8.11;91.11;99023.56;5066238;28;20481;-83
2023/02/21 17:57:37;;;;;;;7.50;2.10;;;;;;;7.89;91.63;98999.91;4991565;28;20049;-83
2023/02/21 18:00:08;;;;;;;5.20;2.17;;;;;;;7.76;92.89;99000.44;5000970;28;20561;-82
2023/02/21 18:02:35;;;;;;;4.82;1.95;;;;;;;7.73;94.42;99020.56;4986862;28;20050;-82
2023/02/21 18:05:01;;;;;;;5.55;2.65;;;;;;;7.60;94.08;99002.16;4987883;28;20057;-83
2023/02/21 18:07:31;;;;;;;7.25;2.38;;;;;;;7.56;94.50;99006.22;4987365;28;20061;-83
2023/02/21 18:09:58;;;;;;;;;;;;;;;7.60;95.52;99026.50;5003345;28;20080;-83
2023/02/21 18:12:24;;;;;;;4.28;1.80;;;;;;;7.36;96.00;99002.13;5054699;27;20086;-83
2023/02/21 18:14:52;;;;;;;3.80;2.38;;;;;;;7.30;97.66;99022.59;5006283;28;20419;-83
2023/02/21 18:17:19;;;;;;;8.48;1.80;;;;;;;7.25;99.28;99033.06;5006769;28;20481;-82
2023/02/21 18:19:45;;;;;;;3.30;1.75;;;;;;;7.18;98.64;99007.69;5006022;28;20042;-83
2023/02/21 18:22:12;;;;;;;5.85;2.65;;;;;;;7.13;99.26;99031.69;5004718;28;20053;-82
2023/02/21 18:24:39;;;;;;;9.32;2.78;;;;;;;6.81;100.00;99004.41;4993870;28;20048;-83
2023/02/21 18:27:06;;;;;;;9.75;2.80;;;;;;;7.05;99.83;99025.25;4986811;28;20133;-83
2023/02/21 18:29:33;;;;;;;8.40;3.33;;;;;;;7.01;100.00;99028.44;5002797;28;20061;-83
2023/02/21 18:32:01;;;;;;;9.98;3.92;;;;;;;6.76;100.00;99014.03;4997877;28;20382;-82
2023/02/21 18:34:27;;;;;;;18.52;8.30;;;;;;;6.79;100.00;99033.47;5000552;28;20054;-82
2023/02/21 18:36:54;;;;;;;20.85;7.53;;;;;;;6.67;100.00;99019.41;4990989;28;20243;-82
2023/02/21 18:39:23;;;;;;;20.90;7.32;;;;;;;6.69;100.00;99030.88;5001022;28;20364;-82
2023/02/21 18:41:50;;;;;;;16.05;6.60;;;;;;;6.52;100.00;99002.97;5004719;28;20147;-82
2023/02/21 18:44:17;;;;;;;23.30;6.85;;;;;;;6.64;100.00;99018.88;5000132;28;20331;-83
2023/02/21 18:46:49;;;;;;;16.17;8.02;;;;;;;6.48;100.00;99025.06;5005040;28;20520;-82
2023/02/21 18:49:17;;;;;;;16.98;6.38;;;;;;;6.40;100.00;98998.88;4994902;28;20050;-82
2023/02/21 18:51:43;;;;;;;13.50;5.82;;;;;;;6.51;100.00;99036.38;5039358;28;20054;-80
2023/02/21 18:54:10;;;;;;;10.23;4.93;;;;;;;6.24;100.00;99007.75;5008529;28;20064;-83
2023/02/21 18:56:36;;;;;;;7.68;4.63;;;;;;;6.25;100.00;99024.78;5000087;28;20042;-82
2023/02/21 18:59:03;;;;;;;14.07;4.65;;;;;;;6.08;100.00;99000.41;4993753;28;20204;-83
2023/02/21 19:01:30;;;;;;;9.85;3.67;;;;;;;6.10;100.00;99035.34;5034066;28;20043;-83
2023/02/21 19:03:56;;;;;;;5.60;3.10;;;;;;;6.02;100.00;99023.47;5000592;27;20042;-83
2023/02/21 19:06:24;;;;;;;6.93;3.50;;;;;;;5.81;100.00;99010.31;5013632;28;20053;-82
2023/02/21 19:08:54;;;;;;;6.43;3.80;;;;;;;5.84;100.00;99015.41;5000622;28;20414;-82
2023/02/21 19:11:21;;;;;;;5.82;3.45;;;;;;;5.92;100.00;99035.38;5023124;28;20515;-82
2023/02/21 19:13:49;;;;;;;6.70;3.17;;;;;;;5.68;100.00;99021.53;5003083;28;20053;-83
2023/02/21 19:16:18;;;;;;;6.43;3.40;;;;;;;5.66;100.00;99033.47;5009487;28;20229;-82
2023/02/21 19:18:46;;;;;;;8.13;3.70;;;;;;;5.82;100.00;99047.06;5025935;28;20039;-83
2023/02/21 19:21:12;;;;;;;5.63;3.80;;;;;;;5.64;100.00;99022.00;5064508;27;20054;-83
2023/02/21 19:23:41;;;;;;;7.90;3.95;;;;;;;5.56;100.00;99006.59;5031246;28;20041;-83
2023/02/21 19:26:08;;;;;;;6.90;3.53;;;;;;;5.73;100.00;99037.22;5005438;28;20455;-83
2023/02/21 19:28:37;;;;;;;6.35;3.22;;;;;;;5.42;100.00;99018.78;5005664;28;20060;-83
2023/02/21 19:31:04;;;;;;;4.47;2.80;;;;;;;5.65;100.00;99046.09;5005686;28;20058;-83
2023/02/21 19:33:31;;;;;;;5.40;2.38;;;;;;;5.33;100.00;99011.66;5002086;28;20692;-83
2023/02/21 19:35:57;;;;;;;5.03;2.75;;;;;;;5.20;100.00;99017.41;5036378;28;20068;-83
2023/02/21 19:38:24;;;;;;;3.72;2.22;;;;;;;5.38;100.00;99044.38;4993081;28;20129;-83